Time;durP1;ratioP1;P1;durP2;ratioP2;P2;SDS_P1;SDS_P2;PMS_P1;PMS_P2;Temp;Humidity;BMP_temperature;BMP_pressure;BME280_temperature;BME280_humidity;BME280_pressure;Samples;Min_cycle;Max_cycle;Signal;HPM_P1;HPM_P2
2021/10/22 00:01:32;;;;;;;1999.90;999.90;;;;;;;8.79;68.30;100354.66;15561143;28;20076;-60
2021/10/22 00:09:23;;;;;;;1999.90;999.90;;;;;;;8.97;67.82;100369.34;15561331;28;20085;-61
2021/10/22 00:17:13;;;;;;;1999.90;999.90;;;;;;;8.69;68.19;100380.03;15560217;28;20049;-59
2021/10/22 00:25:06;;;;;;;1999.90;999.90;;;;;;;8.72;68.10;100372.97;15560131;28;20061;-60
2021/10/22 00:32:57;;;;;;;1999.90;999.90;;;;;;;8.85;67.88;100394.22;15547836;28;20053;-60
2021/10/22 00:40:48;;;;;;;1999.90;999.90;;;;;;;8.65;67.99;100385.44;15559813;28;20112;-61
2021/10/22 00:48:21;;;;;;;1999.90;999.90;;;;;;;8.83;67.45;100386.22;15540466;28;20049;-61
2021/10/22 00:55:56;;;;;;;1999.90;999.90;;;;;;;8.72;67.89;100398.81;15557597;28;20085;-60
2021/10/22 01:03:29;;;;;;;1999.90;999.90;;;;;;;8.48;68.50;100404.91;15556938;28;20046;-59
2021/10/22 01:11:06;;;;;;;1999.90;999.90;;;;;;;8.59;67.95;100403.44;15555298;28;20141;-61
2021/10/22 01:18:38;;;;;;;1999.90;999.90;;;;;;;8.73;67.72;100394.91;15556544;28;20494;-61
2021/10/22 01:26:12;;;;;;;1999.90;999.90;;;;;;;8.55;68.20;100393.28;15556275;28;20050;-61
2021/10/22 01:33:48;;;;;;;1999.90;999.90;;;;;;;8.50;68.47;100388.69;15538146;28;20062;-60
2021/10/22 01:41:22;;;;;;;1999.90;999.90;;;;;;;8.39;68.78;100387.38;15554846;28;20046;-60
2021/10/22 01:48:55;;;;;;;1999.90;999.90;;;;;;;8.22;69.48;100393.69;15554491;28;20049;-60
2021/10/22 01:56:29;;;;;;;1999.90;999.90;;;;;;;8.52;68.62;100414.22;15553903;28;20056;-60
2021/10/22 02:04:02;;;;;;;1999.90;999.90;;;;;;;8.55;68.42;100410.78;15553292;28;20454;-59
2021/10/22 02:11:36;;;;;;;1999.90;999.90;;;;;;;8.47;68.80;100413.56;15536464;28;20488;-61
2021/10/22 02:19:08;;;;;;;1999.90;999.90;;;;;;;8.52;68.30;100402.25;15552740;28;20038;-58
2021/10/22 02:26:42;;;;;;;1999.90;999.90;;;;;;;8.41;68.82;100401.78;15553563;28;20082;-60
2021/10/22 02:34:15;;;;;;;1999.90;999.90;;;;;;;8.39;69.03;100423.53;15551896;28;20070;-61
2021/10/22 02:41:49;;;;;;;1999.90;999.90;;;;;;;8.58;68.53;100417.66;15552718;28;20045;-60
2021/10/22 02:49:21;;;;;;;1999.90;999.90;;;;;;;8.62;68.30;100425.00;15553381;28;20106;-61
2021/10/22 02:56:56;;;;;;;1999.90;999.90;;;;;;;8.63;68.62;100423.03;15547070;28;20054;-61
2021/10/22 03:04:28;;;;;;;1999.90;999.90;;;;;;;8.47;68.49;100417.16;15563793;28;20077;-61
2021/10/22 03:12:04;;;;;;;;;;;;;;;8.82;67.73;100414.38;15564772;28;20137;-61
2021/10/22 03:19:37;;;;;;;1999.90;999.90;;;;;;;8.94;67.26;100422.88;15563413;28;20396;-61
2021/10/22 03:27:12;;;;;;;1999.90;999.90;;;;;;;8.98;67.51;100432.22;15545258;28;20039;-61
2021/10/22 03:34:45;;;;;;;1999.90;999.90;;;;;;;8.84;67.65;100435.16;15569486;28;20048;-60
2021/10/22 03:42:19;;;;;;;1999.90;999.90;;;;;;;8.79;67.50;100437.28;15562651;28;20038;-60
2021/10/22 03:49:52;;;;;;;1999.90;999.90;;;;;;;9.10;66.79;100451.03;15590098;23;20110;-58
2021/10/22 03:57:26;;;;;;;1999.90;999.90;;;;;;;8.85;67.45;100450.69;15575764;28;20502;-56
2021/10/22 04:05:03;;;;;;;1999.90;999.90;;;;;;;8.94;67.37;100445.13;15584168;28;20050;-56
2021/10/22 04:12:37;;;;;;;1999.90;999.90;;;;;;;8.93;67.30;100451.84;15595343;28;20439;-54
2021/10/22 04:20:11;;;;;;;1999.90;999.90;;;;;;;8.71;67.95;100438.94;15582405;28;20060;-56
2021/10/22 04:27:45;;;;;;;1999.90;999.90;;;;;;;8.76;67.80;100435.19;15584003;28;20141;-57
2021/10/22 04:35:17;;;;;;;1999.90;999.90;;;;;;;8.58;68.08;100439.91;15553391;28;20123;-57
2021/10/22 04:42:51;;;;;;;1999.90;999.90;;;;;;;8.51;68.41;100432.03;15567854;28;20034;-57
2021/10/22 04:50:26;;;;;;;1999.90;999.90;;;;;;;8.61;68.15;100426.16;15579089;28;20073;-58
2021/10/22 04:57:59;;;;;;;1999.90;999.90;;;;;;;8.63;68.11;100423.03;15556411;28;20049;-58
2021/10/22 05:05:32;;;;;;;;;;;;;;;8.79;67.67;100431.72;15573506;28;20046;-57
2021/10/22 05:13:06;;;;;;;1999.90;999.90;;;;;;;8.62;67.60;100440.88;15548495;28;19984;-56
2021/10/22 05:20:39;;;;;;;1999.90;999.90;;;;;;;8.58;67.68;100440.72;15537017;28;20553;-57
2021/10/22 05:28:13;;;;;;;1999.90;999.90;;;;;;;9.02;66.50;100438.75;15546033;28;20034;-57
2021/10/22 05:35:45;;;;;;;1999.90;999.90;;;;;;;8.80;66.59;100436.16;15549576;28;20053;-59
2021/10/22 05:43:19;;;;;;;1999.90;999.90;;;;;;;8.78;66.53;100435.66;15551128;28;20486;-57
2021/10/22 05:50:52;;;;;;;1999.90;999.90;;;;;;;8.85;65.82;100442.34;15565228;28;20447;-57
2021/10/22 05:58:26;;;;;;;1999.90;999.90;;;;;;;8.91;65.28;100423.53;15532661;28;20526;-57
2021/10/22 06:05:58;;;;;;;1999.90;999.90;;;;;;;8.95;64.83;100430.88;15548468;28;20066;-58
2021/10/22 06:13:32;;;;;;;1999.90;999.90;;;;;;;9.17;64.49;100429.91;15549353;28;20066;-56
2021/10/22 06:21:07;;;;;;;1999.90;999.90;;;;;;;9.18;63.89;100419.56;15548183;28;20111;-55
2021/10/22 06:28:41;;;;;;;1999.90;999.90;;;;;;;9.59;62.83;100441.25;15559420;28;20450;-55
2021/10/22 06:36:14;;;;;;;1999.90;999.90;;;;;;;9.59;62.89;100424.53;15561832;28;20676;-57
2021/10/22 06:43:50;;;;;;;1999.90;999.90;;;;;;;9.87;61.87;100426.84;15562039;28;20065;-55
2021/10/22 06:51:23;;;;;;;1999.90;999.90;;;;;;;9.84;61.78;100428.34;15575828;28;20118;-59
2021/10/22 06:58:57;;;;;;;1999.90;999.90;;;;;;;9.59;62.53;100424.53;15559802;28;20553;-56
2021/10/22 07:14:21;;;;;;;1999.90;999.90;;;;;;;9.84;62.26;100431.94;15558454;28;20049;-57
2021/10/22 07:21:59;;;;;;;1999.90;999.90;;;;;;;9.81;62.32;100431.81;15559817;28;20074;-56
2021/10/22 07:29:33;;;;;;;1999.90;999.90;;;;;;;9.80;61.87;100432.97;15574439;28;20045;-55
2021/10/22 07:37:06;;;;;;;1999.90;999.90;;;;;;;9.83;62.12;100438.69;15556866;28;20050;-58
2021/10/22 07:44:40;;;;;;;1999.90;999.90;;;;;;;9.95;61.87;100431.56;15557813;28;20048;-57
2021/10/22 07:52:14;;;;;;;1999.90;999.90;;;;;;;10.02;61.43;100429.91;15556865;28;20045;-59
2021/10/22 07:59:48;;;;;;;1999.90;999.90;;;;;;;9.98;61.80;100417.78;15555922;28;20046;-58
2021/10/22 08:07:27;;;;;;;1999.90;999.90;;;;;;;10.23;60.96;100418.81;15556570;28;20054;-58
2021/10/22 08:15:03;;;;;;;1999.90;999.90;;;;;;;9.99;61.47;100427.75;15556038;28;20049;-58
2021/10/22 08:22:37;;;;;;;1999.90;999.90;;;;;;;10.32;60.56;100419.59;15554601;28;20065;-57
2021/10/22 08:30:14;;;;;;;1999.90;999.90;;;;;;;10.02;61.21;100420.72;15554151;28;20038;-58
2021/10/22 08:37:48;;;;;;;1999.90;999.90;;;;;;;10.19;60.87;100408.63;15538862;28;20214;-59
2021/10/22 08:45:22;;;;;;;1999.90;999.90;;;;;;;10.28;60.94;100415.00;15554886;28;20058;-58
2021/10/22 08:52:54;;;;;;;1999.90;999.90;;;;;;;10.22;61.25;100394.06;15553469;28;20463;-59
2021/10/22 09:00:28;;;;;;;1999.90;999.90;;;;;;;10.76;60.03;100397.75;15554213;28;20072;-57
2021/10/22 09:08:05;;;;;;;1999.90;999.90;;;;;;;10.70;59.77;100393.50;15553881;28;20042;-58
2021/10/22 09:15:42;;;;;;;1999.90;999.90;;;;;;;10.59;60.21;100393.13;15553080;28;20399;-57
2021/10/22 09:23:23;;;;;;;1999.90;999.90;;;;;;;10.63;59.80;100396.06;15553276;28;20107;-59
2021/10/22 09:31:09;;;;;;;1999.90;999.90;;;;;;;11.15;58.82;100401.97;15552288;28;20038;-57
2021/10/22 09:38:42;;;;;;;1999.90;999.90;;;;;;;11.72;57.02;100377.94;15550927;28;20061;-57
2021/10/22 09:46:17;;;;;;;1999.90;999.90;;;;;;;11.62;57.20;100375.63;15552473;28;20064;-59
2021/10/22 09:53:52;;;;;;;1999.90;999.90;;;;;;;11.21;58.37;100361.47;15622582;23;20571;-58
2021/10/22 10:01:31;;;;;;;1999.90;999.90;;;;;;;11.98;56.98;100363.63;15616338;28;20048;-61
2021/10/22 10:09:08;;;;;;;1999.90;999.90;;;;;;;11.18;58.27;100366.94;15616202;28;20042;-59
2021/10/22 10:16:43;;;;;;;1999.90;999.90;;;;;;;11.40;59.28;100351.72;15615705;28;20533;-59
2021/10/22 10:24:19;;;;;;;1999.90;999.90;;;;;;;10.97;60.02;100350.25;15614983;28;20053;-58
2021/10/22 10:32:00;;;;;;;1999.90;999.90;;;;;;;11.15;60.96;100332.16;15615611;28;20081;-59
2021/10/22 10:39:56;;;;;;;1999.90;999.90;;;;;;;11.24;60.25;100338.44;15613436;28;20430;-60
2021/10/22 10:47:45;;;;;;;1999.90;999.90;;;;;;;11.04;60.20;100332.91;15597150;28;20057;-61
2021/10/22 10:55:24;;;;;;;1999.90;999.90;;;;;;;11.29;59.15;100337.41;15613681;28;20080;-60
2021/10/22 11:03:17;;;;;;;1999.90;999.90;;;;;;;11.26;59.13;100332.53;15615344;28;20049;-60
2021/10/22 11:10:56;;;;;;;1999.90;999.90;;;;;;;11.34;58.68;100317.59;15616991;28;20116;-60
2021/10/22 11:18:31;;;;;;;1999.90;999.90;;;;;;;11.28;58.63;100311.44;15625597;28;20045;-60
2021/10/22 11:26:04;;;;;;;1999.90;999.90;;;;;;;11.84;57.20;100316.47;15624149;28;20056;-60
2021/10/22 11:33:43;;;;;;;1999.90;999.90;;;;;;;12.39;55.92;100293.38;15624591;28;20049;-61
2021/10/22 11:41:15;;;;;;;1999.90;999.90;;;;;;;12.22;56.89;100276.09;15602508;28;20043;-62
2021/10/22 11:48:51;;;;;;;1999.90;999.90;;;;;;;12.64;54.06;100254.09;15611675;28;20049;-61
2021/10/22 11:56:25;;;;;;;1999.90;999.90;;;;;;;12.68;53.85;100263.41;15596444;28;20038;-57
2021/10/22 12:04:00;;;;;;;1999.90;999.90;;;;;;;12.73;53.10;100248.34;15605579;28;20045;-59
2021/10/22 12:11:33;;;;;;;1999.90;999.90;;;;;;;13.02;52.89;100247.91;15610432;28;20084;-58
2021/10/22 12:19:07;;;;;;;1999.90;999.90;;;;;;;12.83;52.80;100245.84;15604098;28;20049;-59
2021/10/22 12:26:39;;;;;;;1999.90;999.90;;;;;;;12.70;53.51;100245.06;15588021;28;20415;-57
2021/10/22 12:34:15;;;;;;;1999.90;999.90;;;;;;;12.68;53.94;100244.63;15595310;28;20046;-58
2021/10/22 12:41:48;;;;;;;1999.90;999.90;;;;;;;12.33;54.41;100257.63;15605688;28;20042;-58
2021/10/22 12:49:25;;;;;;;1999.90;999.90;;;;;;;12.34;55.01;100257.28;15587765;28;20044;-60
2021/10/22 12:57:00;;;;;;;1999.90;999.90;;;;;;;12.13;55.98;100254.66;15597921;28;20049;-58
2021/10/22 13:04:34;;;;;;;1999.90;999.90;;;;;;;12.49;55.06;100252.88;15615153;28;20045;-61
2021/10/22 13:28:04;;;;;;;1999.90;999.90;;;;;;;11.94;62.00;100288.03;15551141;28;20053;-61
2021/10/22 13:35:38;;;;;;;1999.90;999.90;;;;;;;11.61;66.45;100304.13;15617853;28;20046;-61
2021/10/22 13:43:10;;;;;;;1999.90;999.90;;;;;;;11.51;67.83;100297.84;15617616;28;20375;-60
2021/10/22 13:50:45;;;;;;;1999.90;999.90;;;;;;;11.22;69.08;100317.59;15616354;28;20076;-60
2021/10/22 13:58:18;;;;;;;1999.90;999.90;;;;;;;11.24;69.27;100313.28;15615769;28;20091;-60
2021/10/22 14:05:52;;;;;;;1999.90;999.90;;;;;;;11.06;70.36;100313.88;15599557;28;20095;-60
2021/10/22 14:13:28;;;;;;;1999.90;999.90;;;;;;;10.83;71.51;100305.88;15616942;28;20291;-60
2021/10/22 14:29:03;;;;;;;1999.90;999.90;;;;;;;10.75;71.13;100336.69;15599164;28;20509;-60
2021/10/22 14:36:37;;;;;;;1999.90;999.90;;;;;;;10.85;70.48;100367.78;15537654;28;20049;-59
2021/10/22 14:44:18;;;;;;;1999.90;999.90;;;;;;;10.84;71.57;100377.31;15554731;28;20042;-60
2021/10/22 14:59:42;;;;;;;1999.90;999.90;;;;;;;10.51;77.34;100423.88;15552564;28;20454;-59
2021/10/22 15:07:16;;;;;;;1999.90;999.90;;;;;;;10.35;77.64;100404.97;15566050;28;20454;-59
2021/10/22 15:14:49;;;;;;;1999.90;999.90;;;;;;;10.26;78.64;100414.53;15563801;28;20049;-59
2021/10/22 15:22:23;;;;;;;1999.90;999.90;;;;;;;10.34;79.02;100399.72;15564572;28;20060;-60
2021/10/22 15:29:56;;;;;;;1999.90;999.90;;;;;;;10.29;79.11;100420.25;15589744;28;20037;-58
2021/10/22 15:37:30;;;;;;;1999.90;999.90;;;;;;;10.30;79.26;100432.22;15627064;28;20140;-57
2021/10/22 15:45:02;;;;;;;1999.90;999.90;;;;;;;10.16;79.11;100429.66;15609022;28;20140;-59
2021/10/22 15:52:36;;;;;;;1999.90;999.90;;;;;;;10.29;79.28;100419.44;15615201;22;20767;-60
2021/10/22 16:00:12;;;;;;;1999.90;999.90;;;;;;;10.38;77.88;100446.09;15618198;28;20501;-59
2021/10/22 16:07:53;;;;;;;1999.90;999.90;;;;;;;10.35;77.88;100483.06;15616692;28;20052;-59
2021/10/22 16:15:39;;;;;;;1999.90;999.90;;;;;;;10.33;77.58;100515.22;15600649;28;20050;-60
2021/10/22 16:23:13;;;;;;;1999.90;999.90;;;;;;;10.11;78.74;100531.03;15616287;28;20414;-58
2021/10/22 16:30:46;;;;;;;1999.90;999.90;;;;;;;9.79;78.73;100579.81;15623793;28;20049;-58
2021/10/22 16:38:20;;;;;;;1999.90;999.90;;;;;;;9.58;76.24;100564.94;15616158;28;20033;-59
2021/10/22 16:45:53;;;;;;;1999.90;999.90;;;;;;;9.35;76.06;100585.78;15614618;28;20136;-58
2021/10/22 16:53:26;;;;;;;1999.90;999.90;;;;;;;9.31;75.95;100615.44;15613673;28;20564;-58
2021/10/22 17:00:59;;;;;;;1999.90;999.90;;;;;;;8.82;76.49;100618.28;15614999;28;20069;-57
2021/10/22 17:08:33;;;;;;;1999.90;999.90;;;;;;;8.89;75.71;100640.91;15613683;28;20080;-60
2021/10/22 17:16:06;;;;;;;1999.90;999.90;;;;;;;8.78;76.40;100672.97;15612294;28;20083;-58
2021/10/22 17:23:40;;;;;;;1999.90;999.90;;;;;;;8.59;76.43;100670.44;15612410;28;20061;-58
2021/10/22 17:31:12;;;;;;;1999.90;999.90;;;;;;;8.70;76.69;100695.19;15575824;28;20081;-56
2021/10/22 17:38:48;;;;;;;1999.90;999.90;;;;;;;8.73;76.94;100700.91;15551255;28;20054;-58
2021/10/22 17:46:23;;;;;;;1999.90;999.90;;;;;;;8.80;77.13;100719.94;15550290;28;20057;-58
2021/10/22 17:53:57;;;;;;;1999.90;999.90;;;;;;;8.77;76.95;100723.38;15549719;28;20054;-59
2021/10/22 18:01:30;;;;;;;1999.90;999.90;;;;;;;8.67;75.90;100736.41;15550121;28;20046;-60
2021/10/22 18:09:04;;;;;;;1999.90;999.90;;;;;;;8.57;75.05;100739.47;15549628;28;20525;-59
2021/10/22 18:16:37;;;;;;;1999.90;999.90;;;;;;;8.68;74.43;100767.84;15549703;28;20100;-61
2021/10/22 18:24:11;;;;;;;1999.90;999.90;;;;;;;8.50;74.57;100799.47;15549166;28;20491;-57
2021/10/22 18:31:46;;;;;;;1999.90;999.90;;;;;;;8.57;73.92;100820.13;15589256;28;20058;-60
2021/10/22 18:39:22;;;;;;;1999.90;999.90;;;;;;;8.73;73.58;100808.59;15611038;28;20049;-60
2021/10/22 18:46:54;;;;;;;1999.90;999.90;;;;;;;8.54;74.63;100839.38;15609707;28;20050;-58
2021/10/22 18:54:28;;;;;;;1999.90;999.90;;;;;;;8.62;74.91;100846.97;15608331;28;20394;-60
2021/10/22 19:02:01;;;;;;;1999.90;999.90;;;;;;;8.57;75.45;100853.50;15609747;28;20079;-59
2021/10/22 19:09:37;;;;;;;1999.90;999.90;;;;;;;8.50;76.09;100857.84;15607104;28;20077;-61
2021/10/22 19:17:09;;;;;;;1999.90;999.90;;;;;;;8.63;75.79;100876.44;15609574;28;20493;-61
2021/10/22 19:24:47;;;;;;;1999.90;999.90;;;;;;;8.56;76.01;100885.25;15609124;28;20451;-61
2021/10/22 19:32:20;;;;;;;1999.90;999.90;;;;;;;8.41;76.25;100918.97;15551085;28;20121;-60
2021/10/22 19:39:54;;;;;;;1999.90;999.90;;;;;;;8.49;76.22;100922.97;15556521;28;20063;-60
2021/10/22 19:47:29;;;;;;;1999.90;999.90;;;;;;;8.56;75.84;100928.94;15556075;28;20070;-59
2021/10/22 19:55:04;;;;;;;1999.90;999.90;;;;;;;8.52;75.90;100945.41;15555456;28;20034;-59
2021/10/22 20:02:37;;;;;;;1999.90;999.90;;;;;;;8.78;75.40;100951.19;15556524;28;20056;-57
2021/10/22 20:10:11;;;;;;;1999.90;999.90;;;;;;;8.77;75.54;100973.78;15555700;28;20053;-58
2021/10/22 20:17:43;;;;;;;1999.90;999.90;;;;;;;8.74;76.22;100983.56;15554161;28;20046;-58
2021/10/22 20:25:18;;;;;;;1999.90;999.90;;;;;;;8.50;77.62;100994.13;15555356;28;20147;-59
2021/10/22 20:32:50;;;;;;;1999.90;999.90;;;;;;;8.32;78.44;100993.09;15603578;28;20103;-60
2021/10/22 20:40:25;;;;;;;1999.90;999.90;;;;;;;8.33;78.17;100997.53;15615195;28;20047;-60
2021/10/22 20:48:01;;;;;;;1999.90;999.90;;;;;;;7.96;78.80;101010.53;15613061;28;20049;-58
2021/10/22 21:03:25;;;;;;;1999.90;999.90;;;;;;;8.23;76.27;101045.00;15614043;28;20060;-60
2021/10/22 21:10:59;;;;;;;1999.90;999.90;;;;;;;8.25;75.72;101065.00;15613961;28;20173;-60
2021/10/22 21:18:32;;;;;;;1999.90;999.90;;;;;;;8.16;75.39;101089.09;15612261;28;20309;-61
2021/10/22 21:26:06;;;;;;;1999.90;999.90;;;;;;;8.16;75.31;101106.59;15615916;28;20054;-59
2021/10/22 21:33:39;;;;;;;1999.90;999.90;;;;;;;8.06;75.37;101110.38;15539885;28;20062;-60
2021/10/22 21:41:13;;;;;;;1999.90;999.90;;;;;;;7.95;75.58;101106.16;15550227;28;20462;-59
2021/10/22 21:48:46;;;;;;;1999.90;999.90;;;;;;;7.99;75.48;101111.91;15552267;28;20049;-58
2021/10/22 21:56:21;;;;;;;1999.90;999.90;;;;;;;7.94;75.32;101118.41;15533068;28;20048;-61
2021/10/22 22:03:53;;;;;;;1999.90;999.90;;;;;;;7.77;75.38;101132.84;15532437;28;20041;-59
2021/10/22 22:11:28;;;;;;;1999.90;999.90;;;;;;;8.18;73.89;101142.41;15549667;28;20537;-61
2021/10/22 22:19:00;;;;;;;1999.90;999.90;;;;;;;7.94;74.65;101143.41;15548883;28;20335;-61
2021/10/22 22:26:34;;;;;;;1999.90;999.90;;;;;;;8.00;74.28;101164.41;15550217;28;20052;-61
2021/10/22 22:34:07;;;;;;;1999.90;999.90;;;;;;;8.04;73.86;101184.91;15606950;28;20037;-60
2021/10/22 22:41:41;;;;;;;1999.90;999.90;;;;;;;8.08;74.40;101201.78;15611104;28;20231;-60
2021/10/22 22:49:14;;;;;;;1999.90;999.90;;;;;;;8.17;73.48;101219.44;15609591;28;20136;-61
2021/10/22 22:56:47;;;;;;;1999.90;999.90;;;;;;;8.23;73.34;101221.00;15593050;28;20054;-60
2021/10/22 23:04:20;;;;;;;1999.90;999.90;;;;;;;8.10;73.43;101235.66;15608601;28;20033;-61
2021/10/22 23:11:55;;;;;;;1999.90;999.90;;;;;;;7.87;74.00;101244.94;15618713;28;20410;-61
2021/10/22 23:19:27;;;;;;;1999.90;999.90;;;;;;;7.87;73.93;101242.16;15620794;28;20041;-58
2021/10/22 23:27:01;;;;;;;1999.90;999.90;;;;;;;7.89;73.94;101254.63;15595921;28;20062;-61
2021/10/22 23:34:34;;;;;;;1999.90;999.90;;;;;;;7.80;74.08;101265.59;15580306;28;20048;-59
2021/10/22 23:42:08;;;;;;;1999.90;999.90;;;;;;;8.03;73.49;101276.94;15614585;28;20076;-61
2021/10/22 23:49:40;;;;;;;1999.90;999.90;;;;;;;7.84;73.75;101285.28;15571669;28;20046;-61
2021/10/22 23:57:14;;;;;;;1999.90;999.90;;;;;;;7.72;73.92;101290.47;15558029;28;20133;-59
